Berit — ZDHX2 — position and weather

sailwx.info

Track history (hours):
 
Tides and Currents Weather Stations Pressure Air Temp Water Temp Dewpoint Dewpoint Depression Visibility Wind Speed Wind Dir Waves Ship Positions

Berit

Last reported at 2014-Nov-28 17:14 UTC. Time now 2014-Nov-28 19:23 UTC.
Position N 63°39' E 009°43'.

Length 83 m; draft 4.2 m.

Type: Cargo ship. MMSI: 236386000.

Date/timePositionNaut miles runAvg speedWind from/ knotsBaromVisibWave heightAir tempDewpointWater temp
2014-Nov-28 17:14N 63°39' E 009°43'6 9.6
2014-Nov-28 16:34N 63°34' E 009°51'1010.3
2014-Nov-28 15:34N 63°24' E 009°59'6 1.8
2014-Nov-28 12:10N 63°19' E 009°51'0 0.0
2014-Nov-28 11:28N 63°19' E 009°51'0 0.0
2014-Nov-28 10:04N 63°19' E 009°51'0 0.0
2014-Nov-28 08:28N 63°19' E 009°51'0 0.0
2014-Nov-28 04:04N 63°19' E 009°51'0 0.0
2014-Nov-28 03:28N 63°19' E 009°51'0 0.0
2014-Nov-28 02:04N 63°19' E 009°51'0 0.0
2014-Nov-28 01:28N 63°19' E 009°51'0 0.0
2014-Nov-28 00:28N 63°19' E 009°51'0 0.0
2014-Nov-27 18:16N 63°19' E 009°51'3 3.7
2014-Nov-27 17:33N 63°21' E 009°55'9 8.9
2014-Nov-27 16:34N 63°30' E 009°55'10 9.6
2014-Nov-27 15:30N 63°39' E 009°46'174 7.2
2014-Nov-26 15:23N 66°27' E 011°41'8 8.1
2014-Nov-26 14:23N 66°34' E 011°49'98 2.1
2014-Nov-24 15:04N 67°52' E 014°25'93 8.5
2014-Nov-24 04:09N 66°39' E 011°53'8 9.7
2014-Nov-24 03:19N 66°32' E 011°44'  
2014-Nov-20 22:33N 58°58' E 005°02'8 8.2
2014-Nov-20 21:33N 58°51' E 005°10'23 7.8
2014-Nov-20 18:33N 58°31' E 005°33'10 9.7
2014-Nov-20 17:33N 58°24' E 005°46'10 9.4
2014-Nov-20 16:32N 58°18' E 005°59'7 7.4
2014-Nov-20 15:33N 58°13' E 006°10'7 7.3
2014-Nov-20 14:33N 58°08' E 006°20'256 5.7
2014-Nov-18 17:20N 54°32' E 010°27'  
Track history (hours):
 
Tides and Currents Weather Stations Pressure Air Temp Water Temp Dewpoint Dewpoint Depression Visibility Wind Speed Wind Dir Waves Ship Positions

Berit

Last reported at 2014-Nov-28 17:14 UTC. Time now 2014-Nov-28 19:23 UTC.
Position N 63°39' E 009°43'.

Length 83 m; draft 4.2 m.

Type: Cargo ship. MMSI: 236386000.

Date/timePositionNaut miles runAvg speedWind from/ knotsBaromVisibWave heightAir tempDewpointWater temp
2014-Nov-28 17:14N 63°39' E 009°43'6 9.6
2014-Nov-28 16:34N 63°34' E 009°51'1010.3
2014-Nov-28 15:34N 63°24' E 009°59'6 1.8
2014-Nov-28 12:10N 63°19' E 009°51'0 0.0
2014-Nov-28 11:28N 63°19' E 009°51'0 0.0
2014-Nov-28 10:04N 63°19' E 009°51'0 0.0
2014-Nov-28 08:28N 63°19' E 009°51'0 0.0
2014-Nov-28 04:04N 63°19' E 009°51'0 0.0
2014-Nov-28 03:28N 63°19' E 009°51'0 0.0
2014-Nov-28 02:04N 63°19' E 009°51'0 0.0
2014-Nov-28 01:28N 63°19' E 009°51'0 0.0
2014-Nov-28 00:28N 63°19' E 009°51'0 0.0
2014-Nov-27 18:16N 63°19' E 009°51'3 3.7
2014-Nov-27 17:33N 63°21' E 009°55'9 8.9
2014-Nov-27 16:34N 63°30' E 009°55'10 9.6
2014-Nov-27 15:30N 63°39' E 009°46'174 7.2
2014-Nov-26 15:23N 66°27' E 011°41'8 8.1
2014-Nov-26 14:23N 66°34' E 011°49'98 2.1
2014-Nov-24 15:04N 67°52' E 014°25'93 8.5
2014-Nov-24 04:09N 66°39' E 011°53'8 9.7
2014-Nov-24 03:19N 66°32' E 011°44'  
2014-Nov-20 22:33N 58°58' E 005°02'8 8.2
2014-Nov-20 21:33N 58°51' E 005°10'23 7.8
2014-Nov-20 18:33N 58°31' E 005°33'10 9.7
2014-Nov-20 17:33N 58°24' E 005°46'10 9.4
2014-Nov-20 16:32N 58°18' E 005°59'7 7.4
2014-Nov-20 15:33N 58°13' E 006°10'7 7.3
2014-Nov-20 14:33N 58°08' E 006°20'256 5.7
2014-Nov-18 17:20N 54°32' E 010°27'  

Dump ship's entire track history